Etusivu
METAR-TAF:

METAR-TAF

Lentoasemat :

Borlänge, Ruotsi

Leveyspiiri: 60-26N, Pituuspiiri: 015-31E, korkeus merenpinnasta: 145 m

Tämänhetkinen sää

Tämä raportti tehtiin 33 minuuttia sitten, kello 14.20 UTC
Tuuli 3 kn eri suunnista
Lämpötila -2°C
Kosteus 100%
Ilmanpaine 990 hPa
Näkyvyys 10 km tai enemmän
Pilvistä 600 ft:n korkeudessa
heikkoa lumisadetta

METAR: ESSD 131420Z VRB03KT 9999 -SN OVC006 M02/M02 Q0990 RESN

Aika: 15:53 (14:53 UTC)

Sääennuste

Tämä raportti tehtiin 23 minuuttia sitten, kello 14.30 UTC
Ennuste voimassa 13. päivästä klo 15 UTC - 13. päivään klo 20 UTC
Tuuli 8 kn etelästä
Näkyvyys 10 km tai enemmän
Hajanaisia pilviä 500 ft:n korkeudessa
Hajonneita pilviä 1000 ft:n korkeudessa
heikkoa lumisadetta
Ajoittain
13. päivästä klo 15 UTC - 13. päivään klo 20 UTC
Näkyvyys: 2000 m
Pilvistä 400 ft:n korkeudessa
lumijyväsiä, lumisadetta

TAF: ESSD 131430Z 1315/1320 19008KT 9999 -SN SCT005 BKN010 TEMPO 1315/1320 2000 SG SN OVC004

Säähavainnot ja -ennusteet yli 4000 lentoasemalta (METAR- ja TAF-raportit).

Käytössä olevat sääasemat on merkitty karttaan keltaisilla ja punaisilla pisteillä.

Aseta hiiri pisteen päälle nähdäksesi sääaseman nimen.

Klikkaa sitten nähdäksesi säähavainnot ja -ennusteet.

Kartan vaihtaminen: klikkaa mustalla rastilla varustettuja vihreitä pisteitä, niin voit zoomata sisään; viivalla varustettua vihreää pistettä, niin voit zoomata ulos tai vihreitä nuolia, niin pääset viereisille kartoille.


METAR-TAF: